createdAt,value
2023-05-09T00:01:13.028Z,9.13
2023-05-09T00:03:40.220Z,7.97
2023-05-09T00:06:07.327Z,8.35
2023-05-09T00:08:33.910Z,8.63
2023-05-09T00:11:01.499Z,8.20
2023-05-09T00:13:28.490Z,8.02
2023-05-09T00:15:55.043Z,8.38
2023-05-09T00:18:22.184Z,8.02
2023-05-09T00:20:49.618Z,8.70
2023-05-09T00:23:16.774Z,8.68
2023-05-09T00:25:43.435Z,8.85
2023-05-09T00:28:10.015Z,8.07
2023-05-09T00:30:36.563Z,9.15
2023-05-09T00:33:03.153Z,7.73
2023-05-09T00:35:29.751Z,8.02
2023-05-09T00:37:56.296Z,8.60
2023-05-09T00:40:22.888Z,8.27
2023-05-09T00:42:49.459Z,8.60
2023-05-09T00:45:16.085Z,8.40
2023-05-09T00:47:43.009Z,8.10
2023-05-09T00:50:10.206Z,8.02
2023-05-09T00:52:37.268Z,7.93
2023-05-09T00:55:05.347Z,7.82
2023-05-09T00:57:31.877Z,7.43
2023-05-09T00:59:58.425Z,7.35
2023-05-09T01:02:25.113Z,8.57
2023-05-09T01:04:51.756Z,7.07
2023-05-09T01:07:50.181Z,7.82
2023-05-09T01:10:37.065Z,7.73
2023-05-09T01:13:28.331Z,7.50
2023-05-09T01:16:06.466Z,8.00
2023-05-09T01:18:51.788Z,8.05
2023-05-09T01:21:28.011Z,6.95
2023-05-09T01:24:21.193Z,8.10
2023-05-09T01:27:15.810Z,7.30
2023-05-09T01:29:52.475Z,8.82
2023-05-09T01:32:25.434Z,7.57
2023-05-09T01:34:55.351Z,8.52
2023-05-09T01:37:33.981Z,7.80
2023-05-09T01:40:06.735Z,7.30
2023-05-09T01:42:58.344Z,8.93
2023-05-09T01:45:27.174Z,9.43
2023-05-09T01:47:54.091Z,8.35
2023-05-09T01:50:22.457Z,8.00
2023-05-09T01:52:52.252Z,7.32
2023-05-09T01:55:21.329Z,8.02
2023-05-09T01:57:50.273Z,8.00
2023-05-09T02:00:17.783Z,8.15
2023-05-09T02:02:45.013Z,7.50
2023-05-09T02:05:12.438Z,8.30
2023-05-09T02:07:41.719Z,8.65
2023-05-09T02:10:09.812Z,7.50
2023-05-09T02:12:36.368Z,8.25
2023-05-09T02:15:03.043Z,8.63
2023-05-09T02:17:30.894Z,8.15
2023-05-09T02:19:57.502Z,8.23
2023-05-09T02:22:24.338Z,7.80
2023-05-09T02:24:50.865Z,7.75
2023-05-09T02:27:18.840Z,8.93
2023-05-09T02:29:50.769Z,8.00
2023-05-09T02:32:23.719Z,8.77
2023-05-09T02:34:52.851Z,8.32
2023-05-09T02:37:20.654Z,8.32
2023-05-09T02:39:47.767Z,8.33
2023-05-09T02:42:18.316Z,9.07
2023-05-09T02:44:44.821Z,7.82
2023-05-09T02:47:11.531Z,8.07
2023-05-09T02:49:38.059Z,8.32
2023-05-09T02:52:04.995Z,8.43
2023-05-09T02:54:31.519Z,8.25
2023-05-09T02:56:59.452Z,8.73
2023-05-09T02:59:26.168Z,7.80
2023-05-09T03:01:52.701Z,7.70
2023-05-09T03:04:19.858Z,8.67
2023-05-09T03:06:46.585Z,7.40
2023-05-09T03:09:13.128Z,8.30
2023-05-09T03:11:39.619Z,8.07
2023-05-09T03:14:08.340Z,7.80
2023-05-09T03:16:35.304Z,7.60
2023-05-09T03:19:01.930Z,7.68
2023-05-09T03:21:28.461Z,8.75
2023-05-09T03:23:55.121Z,7.53
2023-05-09T03:26:21.659Z,8.45
2023-05-09T03:28:48.995Z,8.13
2023-05-09T03:31:16.095Z,7.88
2023-05-09T03:33:42.753Z,7.63
2023-05-09T03:36:09.409Z,7.97
2023-05-09T03:38:35.905Z,8.27
2023-05-09T03:41:02.556Z,7.70
2023-05-09T03:43:29.051Z,8.55
2023-05-09T03:45:56.069Z,8.38
2023-05-09T03:48:22.588Z,8.63
2023-05-09T03:50:49.177Z,8.85
2023-05-09T03:53:16.068Z,9.27
2023-05-09T03:55:42.561Z,9.85
2023-05-09T03:58:09.144Z,8.55
2023-05-09T04:00:35.874Z,8.25
2023-05-09T04:03:02.583Z,9.80
2023-05-09T04:05:29.259Z,8.93
2023-05-09T04:07:55.775Z,9.07
2023-05-09T04:10:22.540Z,9.85
2023-05-09T04:12:49.027Z,11.18
2023-05-09T04:15:15.955Z,11.75
2023-05-09T04:17:42.847Z,10.83
2023-05-09T04:20:10.749Z,11.43
2023-05-09T04:22:37.230Z,12.43
2023-05-09T04:25:07.409Z,11.50
2023-05-09T04:27:33.841Z,12.50
2023-05-09T04:30:00.327Z,11.40
2023-05-09T04:32:27.069Z,13.00
2023-05-09T04:34:53.577Z,11.85
2023-05-09T04:37:20.221Z,13.52
2023-05-09T04:39:46.720Z,12.48
2023-05-09T04:42:13.413Z,10.23
2023-05-09T04:44:39.956Z,10.75
2023-05-09T04:47:06.818Z,12.05
2023-05-09T04:49:33.273Z,10.50
2023-05-09T04:51:59.832Z,11.30
2023-05-09T04:54:26.980Z,11.30
2023-05-09T04:56:57.890Z,9.73
2023-05-09T04:59:29.957Z,11.18
2023-05-09T05:01:56.488Z,10.55
2023-05-09T05:04:23.737Z,10.52
2023-05-09T05:06:50.249Z,10.03
2023-05-09T05:09:16.999Z,9.63
2023-05-09T05:11:53.168Z,9.13
2023-05-09T05:14:25.190Z,9.13
2023-05-09T05:16:51.693Z,9.13
2023-05-09T05:19:18.356Z,10.00
2023-05-09T05:21:44.844Z,10.02
2023-05-09T05:24:11.524Z,10.38
2023-05-09T05:26:38.353Z,10.13
2023-05-09T05:29:04.985Z,9.95
2023-05-09T05:31:31.531Z,9.27
2023-05-09T05:33:58.085Z,9.35
2023-05-09T05:36:24.645Z,9.13
2023-05-09T05:38:51.702Z,9.15
2023-05-09T05:41:18.278Z,9.05
2023-05-09T05:43:44.845Z,8.67
2023-05-09T05:46:11.582Z,7.47
2023-05-09T05:48:38.252Z,9.73
2023-05-09T05:51:04.953Z,8.73
2023-05-09T05:53:32.812Z,9.32
2023-05-09T05:55:59.443Z,9.43
2023-05-09T05:58:26.951Z,8.27
2023-05-09T06:00:53.567Z,8.73
2023-05-09T06:03:20.233Z,8.38
2023-05-09T06:05:48.260Z,8.05
2023-05-09T06:08:14.933Z,7.97
2023-05-09T06:10:41.963Z,8.60
2023-05-09T06:13:08.834Z,8.43
2023-05-09T06:15:35.497Z,8.90
2023-05-09T06:18:02.311Z,9.32
2023-05-09T06:20:29.259Z,8.37
2023-05-09T06:22:55.815Z,8.13
2023-05-09T06:25:22.293Z,8.82
2023-05-09T06:27:48.759Z,8.55
2023-05-09T06:30:25.591Z,9.07
2023-05-09T06:32:53.623Z,9.30
2023-05-09T06:35:20.397Z,8.85
2023-05-09T06:37:48.609Z,10.35
2023-05-09T06:40:15.518Z,9.57
2023-05-09T06:42:42.027Z,9.40
2023-05-09T06:45:08.932Z,8.93
2023-05-09T06:47:35.877Z,10.02
2023-05-09T06:50:02.517Z,9.82
2023-05-09T06:52:29.094Z,9.25
2023-05-09T06:54:55.751Z,10.25
2023-05-09T06:57:22.393Z,9.70
2023-05-09T06:59:49.112Z,9.15
2023-05-09T07:02:16.375Z,9.60
2023-05-09T07:04:43.071Z,10.05
2023-05-09T07:07:09.666Z,10.52
2023-05-09T07:09:36.231Z,9.83
2023-05-09T07:12:02.843Z,8.43
2023-05-09T07:14:29.400Z,9.95
2023-05-09T07:17:05.214Z,10.48
2023-05-09T07:19:41.271Z,10.80
2023-05-09T07:22:07.980Z,11.70
2023-05-09T07:24:34.702Z,11.45
2023-05-09T07:27:03.938Z,10.80
2023-05-09T07:29:30.492Z,11.55
2023-05-09T07:31:57.475Z,12.50
2023-05-09T07:34:25.438Z,12.80
2023-05-09T07:36:52.081Z,11.50
2023-05-09T07:39:18.556Z,12.20
2023-05-09T07:41:46.409Z,11.73
2023-05-09T07:44:14.195Z,11.50
2023-05-09T07:46:42.078Z,13.20
2023-05-09T07:49:08.904Z,12.35
2023-05-09T07:51:35.674Z,13.00
2023-05-09T07:54:02.183Z,12.68
2023-05-09T07:56:28.850Z,12.90
2023-05-09T07:58:55.868Z,12.53
2023-05-09T08:01:22.465Z,11.57
2023-05-09T08:03:49.164Z,14.25
2023-05-09T08:06:15.926Z,9.27
2023-05-09T08:08:42.465Z,11.70
2023-05-09T08:11:08.955Z,13.53
2023-05-09T08:13:35.522Z,12.73
2023-05-09T08:16:02.816Z,12.80
2023-05-09T08:18:29.552Z,14.60
2023-05-09T08:20:56.379Z,14.30
2023-05-09T08:23:22.931Z,13.63
2023-05-09T08:25:53.272Z,15.05
2023-05-09T08:28:20.759Z,15.50
2023-05-09T08:30:47.299Z,14.80
2023-05-09T08:33:13.978Z,14.05
2023-05-09T08:35:40.578Z,14.87
2023-05-09T08:38:07.067Z,13.48
2023-05-09T08:40:38.245Z,12.52
2023-05-09T08:43:06.749Z,15.23
2023-05-09T08:45:36.400Z,12.73
2023-05-09T08:48:06.275Z,14.07
2023-05-09T08:50:33.322Z,12.90
2023-05-09T08:52:59.959Z,15.15
2023-05-09T08:55:27.042Z,13.18
2023-05-09T08:57:54.000Z,14.88
2023-05-09T09:00:21.477Z,13.10
2023-05-09T09:02:48.983Z,15.52
2023-05-09T09:05:39.547Z,12.65
2023-05-09T09:08:05.553Z,13.00
2023-05-09T09:10:32.931Z,12.50
2023-05-09T09:13:00.713Z,13.23
2023-05-09T09:15:34.818Z,11.77
2023-05-09T09:18:07.965Z,11.70
2023-05-09T09:20:37.503Z,12.48
2023-05-09T09:23:10.483Z,12.43
2023-05-09T09:25:37.481Z,9.63
2023-05-09T09:28:05.043Z,11.52
2023-05-09T09:30:31.613Z,10.38
2023-05-09T09:33:01.018Z,5.72
2023-05-09T09:35:27.648Z,6.45
2023-05-09T09:38:00.193Z,2.00
2023-05-09T09:40:27.458Z,1.73
2023-05-09T09:42:54.216Z,1.73
2023-05-09T09:45:21.129Z,2.33
2023-05-09T09:47:50.082Z,1.30
2023-05-09T09:50:17.903Z,2.00
2023-05-09T09:52:56.205Z,1.83
2023-05-09T09:55:24.661Z,1.80
2023-05-09T09:57:51.908Z,1.85
2023-05-09T10:00:24.288Z,1.88
2023-05-09T10:02:52.438Z,1.40
2023-05-09T10:05:24.319Z,1.38
2023-05-09T10:07:56.296Z,1.08
2023-05-09T10:10:23.111Z,1.67
2023-05-09T10:12:51.407Z,1.17
2023-05-09T10:15:20.268Z,1.63
2023-05-09T10:17:47.742Z,1.55
2023-05-09T10:20:15.973Z,1.45
2023-05-09T10:22:42.905Z,1.63
2023-05-09T10:25:19.449Z,2.42
2023-05-09T10:27:47.548Z,2.07
2023-05-09T10:30:18.750Z,0.93
2023-05-09T10:32:53.562Z,1.17
2023-05-09T10:35:36.559Z,0.80
2023-05-09T10:38:03.469Z,1.13
2023-05-09T10:40:32.455Z,0.80
2023-05-09T10:42:58.970Z,0.90
2023-05-09T10:45:26.603Z,1.55
2023-05-09T10:47:54.151Z,1.20
2023-05-09T10:50:21.526Z,1.50
2023-05-09T10:53:03.875Z,1.77
2023-05-09T10:55:52.246Z,1.52
2023-05-09T10:58:29.833Z,1.08
2023-05-09T11:00:58.287Z,0.80
2023-05-09T11:03:26.858Z,0.68
2023-05-09T11:05:58.512Z,0.53
2023-05-09T11:08:31.551Z,0.77
2023-05-09T11:11:04.104Z,1.17
2023-05-09T11:13:32.334Z,0.90
2023-05-09T11:16:02.060Z,0.93
2023-05-09T11:18:29.619Z,1.20
2023-05-09T11:20:56.788Z,0.60
2023-05-09T11:23:28.022Z,0.70
2023-05-09T11:26:05.349Z,0.70
2023-05-09T11:28:38.953Z,1.05
2023-05-09T11:31:16.191Z,0.97
2023-05-09T11:33:45.484Z,0.80
2023-05-09T11:36:20.679Z,0.77
2023-05-09T11:38:47.834Z,0.82
2023-05-09T11:41:15.618Z,1.17
2023-05-09T11:43:44.504Z,0.77
2023-05-09T11:46:11.555Z,0.93
2023-05-09T11:48:39.604Z,0.90
2023-05-09T11:51:07.482Z,0.73
2023-05-09T11:53:34.374Z,0.60
2023-05-09T11:56:07.464Z,0.73
2023-05-09T11:58:38.653Z,0.90
2023-05-09T12:01:06.784Z,0.95
2023-05-09T12:03:33.770Z,1.02
2023-05-09T12:06:01.203Z,0.50
2023-05-09T12:08:28.866Z,0.73
2023-05-09T12:10:55.511Z,1.27
2023-05-09T12:13:22.127Z,0.80
2023-05-09T12:15:48.822Z,0.75
2023-05-09T12:18:17.081Z,0.57
2023-05-09T12:20:48.445Z,0.73
2023-05-09T12:23:15.487Z,0.80
2023-05-09T12:25:54.905Z,0.93
2023-05-09T12:28:24.393Z,0.60
2023-05-09T12:30:51.855Z,0.70
2023-05-09T12:33:19.043Z,0.90
2023-05-09T12:35:47.625Z,1.05
2023-05-09T12:38:23.344Z,1.02
2023-05-09T12:41:03.402Z,0.70
2023-05-09T12:43:34.692Z,0.75
2023-05-09T12:46:02.465Z,0.70
2023-05-09T12:48:30.815Z,0.73
2023-05-09T12:51:03.271Z,0.88
2023-05-09T12:53:33.055Z,0.60
2023-05-09T12:56:03.988Z,0.60
2023-05-09T12:58:33.978Z,0.83
2023-05-09T13:01:05.781Z,1.02
2023-05-09T13:03:37.972Z,0.77
2023-05-09T13:06:06.612Z,0.77
2023-05-09T13:08:33.374Z,1.05
2023-05-09T13:11:15.062Z,0.70
2023-05-09T13:13:42.949Z,0.65
2023-05-09T13:16:10.735Z,0.75
2023-05-09T13:18:38.787Z,0.60
2023-05-09T13:21:05.391Z,0.50
2023-05-09T13:23:32.108Z,0.93
2023-05-09T13:25:58.747Z,0.80
2023-05-09T13:28:25.616Z,0.60
2023-05-09T13:30:52.221Z,0.70
2023-05-09T13:33:25.886Z,0.60
2023-05-09T13:35:53.571Z,0.60
2023-05-09T13:38:20.266Z,0.77
2023-05-09T13:40:47.009Z,0.82
2023-05-09T13:43:13.660Z,1.08
2023-05-09T13:45:40.168Z,0.70
2023-05-09T13:48:06.746Z,0.73
2023-05-09T13:50:34.268Z,1.15
2023-05-09T13:53:00.862Z,1.13
2023-05-09T13:55:27.703Z,0.77
2023-05-09T13:57:55.046Z,1.83
2023-05-09T14:00:22.270Z,1.10
2023-05-09T14:02:48.892Z,2.25
2023-05-09T14:05:15.772Z,1.65
2023-05-09T14:07:43.174Z,1.45
2023-05-09T14:10:11.827Z,0.70
2023-05-09T14:12:40.289Z,0.80
2023-05-09T14:15:07.928Z,1.02
2023-05-09T14:17:34.549Z,1.25
2023-05-09T14:20:01.210Z,0.90
2023-05-09T14:22:28.225Z,0.63
2023-05-09T14:24:56.778Z,0.93
2023-05-09T14:27:23.400Z,0.85
2023-05-09T14:29:49.921Z,0.95
2023-05-09T14:32:16.893Z,0.82
2023-05-09T14:34:43.928Z,1.20
2023-05-09T14:37:14.442Z,0.77
2023-05-09T14:39:45.150Z,0.60
2023-05-09T14:42:14.106Z,0.60
2023-05-09T14:44:41.648Z,0.90
2023-05-09T14:47:12.137Z,0.50
2023-05-09T14:49:41.539Z,0.67
2023-05-09T14:52:08.119Z,0.80
2023-05-09T14:54:34.983Z,0.50
2023-05-09T14:57:04.667Z,0.70
2023-05-09T14:59:31.704Z,0.70
2023-05-09T15:01:58.270Z,0.90
2023-05-09T15:04:28.418Z,0.55
2023-05-09T15:06:55.037Z,0.90
2023-05-09T15:09:24.241Z,1.35
2023-05-09T15:11:50.784Z,1.27
2023-05-09T15:14:17.325Z,0.83
2023-05-09T15:16:44.244Z,0.70
2023-05-09T15:19:11.119Z,0.50
2023-05-09T15:21:37.664Z,0.82
2023-05-09T15:24:05.070Z,0.95
2023-05-09T15:26:32.213Z,0.60
2023-05-09T15:28:58.969Z,1.08
2023-05-09T15:31:25.894Z,1.00
2023-05-09T15:33:52.673Z,0.80
2023-05-09T15:36:19.189Z,1.17
2023-05-09T15:38:49.374Z,0.80
2023-05-09T15:41:16.913Z,1.17
2023-05-09T15:43:43.778Z,1.10
2023-05-09T15:46:10.626Z,1.10
2023-05-09T15:48:37.216Z,1.27
2023-05-09T15:51:04.336Z,1.60
2023-05-09T15:53:33.073Z,0.80
2023-05-09T15:56:00.956Z,1.15
2023-05-09T15:58:27.559Z,0.60
2023-05-09T16:00:56.646Z,0.98
2023-05-09T16:03:24.831Z,1.83
2023-05-09T16:05:52.304Z,0.70
2023-05-09T16:08:18.979Z,1.25
2023-05-09T16:10:49.020Z,1.08
2023-05-09T16:13:17.892Z,1.10
2023-05-09T16:15:45.506Z,1.93
2023-05-09T16:18:12.381Z,0.82
2023-05-09T16:20:39.036Z,1.98
2023-05-09T16:23:05.729Z,0.95
2023-05-09T16:25:34.481Z,0.98
2023-05-09T16:28:02.008Z,0.80
2023-05-09T16:30:28.553Z,0.95
2023-05-09T16:32:55.304Z,1.10
2023-05-09T16:35:21.993Z,0.77
2023-05-09T16:37:48.607Z,1.13
2023-05-09T16:40:15.547Z,1.17
2023-05-09T16:42:43.005Z,1.02
2023-05-09T16:45:10.049Z,1.27
2023-05-09T16:47:36.770Z,1.40
2023-05-09T16:50:04.752Z,1.08
2023-05-09T16:52:31.474Z,1.10
2023-05-09T16:54:59.518Z,1.02
2023-05-09T16:57:26.190Z,1.83
2023-05-09T16:59:53.914Z,0.80
2023-05-09T17:02:20.517Z,1.15
2023-05-09T17:04:47.318Z,1.00
2023-05-09T17:07:14.731Z,1.52
2023-05-09T17:09:41.477Z,0.95
2023-05-09T17:12:10.837Z,1.00
2023-05-09T17:14:37.545Z,1.50
2023-05-09T17:17:04.063Z,1.40
2023-05-09T17:19:30.676Z,0.93
2023-05-09T17:21:59.231Z,1.58
2023-05-09T17:24:25.763Z,1.00
2023-05-09T17:26:52.697Z,1.33
2023-05-09T17:29:19.244Z,0.90
2023-05-09T17:31:45.881Z,1.05
2023-05-09T17:34:12.424Z,1.17
2023-05-09T17:36:40.435Z,0.77
2023-05-09T17:39:07.169Z,1.70
2023-05-09T17:41:33.834Z,1.83
2023-05-09T17:44:00.396Z,1.77
2023-05-09T17:46:27.326Z,1.58
2023-05-09T17:48:53.955Z,1.35
2023-05-09T17:51:21.006Z,1.83
2023-05-09T17:53:47.615Z,1.53
2023-05-09T17:56:14.147Z,1.00
2023-05-09T17:58:41.096Z,1.00
2023-05-09T18:01:12.623Z,1.98
2023-05-09T18:03:41.936Z,0.77
2023-05-09T18:06:08.686Z,1.43
2023-05-09T18:08:36.908Z,1.27
2023-05-09T18:11:05.799Z,0.52
2023-05-09T18:13:36.079Z,1.13
2023-05-09T18:16:03.096Z,1.60
2023-05-09T18:18:34.469Z,0.87
2023-05-09T18:21:01.194Z,1.10
2023-05-09T18:23:30.591Z,0.85
2023-05-09T18:25:57.118Z,0.75
2023-05-09T18:28:29.082Z,1.85
2023-05-09T18:30:58.490Z,0.90
2023-05-09T18:33:26.714Z,1.85
2023-05-09T18:35:54.628Z,0.77
2023-05-09T18:38:21.788Z,1.02
2023-05-09T18:40:48.476Z,1.25
2023-05-09T18:43:16.607Z,0.60
2023-05-09T18:45:45.044Z,1.23
2023-05-09T18:48:11.673Z,0.52
2023-05-09T18:50:38.326Z,1.30
2023-05-09T18:53:05.013Z,1.05
2023-05-09T18:55:31.531Z,0.63
2023-05-09T18:57:58.240Z,1.05
2023-05-09T19:00:24.777Z,1.00
2023-05-09T19:02:51.867Z,0.80
2023-05-09T19:05:18.885Z,1.13
2023-05-09T19:07:45.399Z,0.77
2023-05-09T19:10:12.574Z,1.25
2023-05-09T19:12:39.421Z,0.77
2023-05-09T19:15:06.635Z,0.83
2023-05-09T19:17:33.240Z,1.25
2023-05-09T19:19:59.788Z,1.10
2023-05-09T19:22:26.351Z,0.70
2023-05-09T19:24:52.921Z,1.23
2023-05-09T19:27:19.573Z,0.70
2023-05-09T19:29:49.908Z,0.73
2023-05-09T19:32:17.954Z,0.63
2023-05-09T19:34:44.656Z,0.90
2023-05-09T19:37:11.209Z,0.50
2023-05-09T19:39:37.862Z,1.10
2023-05-09T19:42:04.396Z,0.68
2023-05-09T19:44:31.048Z,0.70
2023-05-09T19:46:58.579Z,0.98
2023-05-09T19:49:25.965Z,0.52
2023-05-09T19:51:52.606Z,0.80
2023-05-09T19:54:19.319Z,0.50
2023-05-09T19:56:45.942Z,1.10
2023-05-09T19:59:12.585Z,1.00
2023-05-09T20:01:39.185Z,0.82
2023-05-09T20:04:07.435Z,0.70
2023-05-09T20:06:34.167Z,0.70
2023-05-09T20:09:00.978Z,1.13
2023-05-09T20:11:27.678Z,0.73
2023-05-09T20:13:54.344Z,1.20
2023-05-09T20:16:21.334Z,0.70
2023-05-09T20:18:50.033Z,0.60
2023-05-09T20:21:18.059Z,0.73
2023-05-09T20:23:44.647Z,0.95
2023-05-09T20:26:11.284Z,1.00
2023-05-09T20:28:38.339Z,0.53
2023-05-09T20:31:05.100Z,0.90
2023-05-09T20:33:31.771Z,0.93
2023-05-09T20:35:58.473Z,0.60
2023-05-09T20:38:25.553Z,0.80
2023-05-09T20:40:52.180Z,1.03
2023-05-09T20:43:19.795Z,1.05
2023-05-09T20:45:46.538Z,0.80
2023-05-09T20:48:13.691Z,0.85
2023-05-09T20:50:40.444Z,0.68
2023-05-09T20:53:07.121Z,0.80
2023-05-09T20:55:33.666Z,0.47
2023-05-09T20:58:00.460Z,0.55
2023-05-09T21:00:27.023Z,1.02
2023-05-09T21:02:57.518Z,0.93
2023-05-09T21:05:25.059Z,0.80
2023-05-09T21:07:51.613Z,1.58
2023-05-09T21:10:18.510Z,0.70
2023-05-09T21:12:47.431Z,0.80
2023-05-09T21:15:14.118Z,0.50
2023-05-09T21:17:40.947Z,0.93
2023-05-09T21:20:08.530Z,0.90
2023-05-09T21:22:35.201Z,0.70
2023-05-09T21:25:01.725Z,1.33
2023-05-09T21:27:30.508Z,1.05
2023-05-09T21:29:57.646Z,1.50
2023-05-09T21:32:24.517Z,1.08
2023-05-09T21:34:51.119Z,1.25
2023-05-09T21:37:17.668Z,0.80
2023-05-09T21:39:45.197Z,2.35
2023-05-09T21:42:11.890Z,0.67
2023-05-09T21:44:38.490Z,0.93
2023-05-09T21:47:05.291Z,0.80
2023-05-09T21:49:32.067Z,0.60
2023-05-09T21:51:58.742Z,1.10
2023-05-09T21:54:25.430Z,0.70
2023-05-09T21:56:52.136Z,1.48
2023-05-09T21:59:20.893Z,1.17
2023-05-09T22:01:47.441Z,1.45
2023-05-09T22:04:14.260Z,1.25
2023-05-09T22:06:43.928Z,2.00
2023-05-09T22:09:10.860Z,1.00
2023-05-09T22:11:37.698Z,2.03
2023-05-09T22:14:04.270Z,1.30
2023-05-09T22:16:30.804Z,1.00
2023-05-09T22:18:57.657Z,0.93
2023-05-09T22:21:24.261Z,1.00
2023-05-09T22:23:50.904Z,0.70
2023-05-09T22:26:17.494Z,1.25
2023-05-09T22:28:43.967Z,0.80
2023-05-09T22:31:10.558Z,1.57
2023-05-09T22:33:37.023Z,1.40
2023-05-09T22:36:03.964Z,1.35
2023-05-09T22:38:30.607Z,1.00
2023-05-09T22:40:57.315Z,2.58
2023-05-09T22:43:25.401Z,2.33
2023-05-09T22:45:55.270Z,1.13
2023-05-09T22:48:22.007Z,2.33
2023-05-09T22:50:48.565Z,0.98
2023-05-09T22:53:15.092Z,1.65
2023-05-09T22:55:41.806Z,2.17
2023-05-09T22:58:08.474Z,1.42
2023-05-09T23:00:35.136Z,2.13
2023-05-09T23:03:03.525Z,1.10
2023-05-09T23:05:31.369Z,1.70
2023-05-09T23:07:57.978Z,1.40
2023-05-09T23:10:24.510Z,1.25
2023-05-09T23:12:51.222Z,1.63
2023-05-09T23:15:17.974Z,1.52
2023-05-09T23:17:44.549Z,1.80
2023-05-09T23:20:11.657Z,1.17
2023-05-09T23:22:38.256Z,1.75
2023-05-09T23:25:06.511Z,1.60
2023-05-09T23:27:33.036Z,1.65
2023-05-09T23:29:59.662Z,0.85
2023-05-09T23:32:26.250Z,1.37
2023-05-09T23:34:53.655Z,1.60
2023-05-09T23:37:20.330Z,2.28
2023-05-09T23:39:46.904Z,1.08
2023-05-09T23:42:13.479Z,1.33
2023-05-09T23:44:40.414Z,1.87
2023-05-09T23:47:07.337Z,1.27
2023-05-09T23:49:34.006Z,2.03
2023-05-09T23:52:00.559Z,1.85
2023-05-09T23:54:27.400Z,1.50
2023-05-09T23:56:54.299Z,1.27
2023-05-09T23:59:21.012Z,1.88
